Jordans Store, Texas
Current Conditions -  °F | °C
As of 1:15 PM on Friday 31 Oct 2014 (Local Time) from KOCH Reporting Station
Clear Clear  
Wind Chill: 70°   Ceiling: Unl
Heat Index: 70°   Visibility: 10mi
Dew Point: 45°   Wind: 9mph
Humidity: 40%   Direction: 360°N
Pressure: 30.21"   Gusts: 20mph
Location:  31.7022°N, 93.9592°W
Report Text: KOCH 311815Z AUTO 36008G17KT 10SM CLR 21/07 A3021 RMK AO1
Loading
Personal Weather Stations






























Interactive Weather Map New forecast layout! Learn more

10-Day Weather Forecast

Advertisements
Track Severe Weather on mobile